Time;durP1;ratioP1;P1;durP2;ratioP2;P2;SDS_P1;SDS_P2;PMS_P1;PMS_P2;Temp;Humidity;BMP_temperature;BMP_pressure;BME280_temperature;BME280_humidity;BME280_pressure;Samples;Min_cycle;Max_cycle;Signal;HPM_P1;HPM_P2
2021/08/02 00:00:06;;;;;;;;;1.00;1.00;;;;;;;;4678034;30;47196;-92
2021/08/02 00:02:31;;;;;;;;;1.00;1.00;;;;;;;;4685375;30;45475;-93
2021/08/02 00:05:01;;;;;;;;;6.25;2.00;;;;;;;;4672683;30;44793;-93
2021/08/02 00:07:27;;;;;;;;;0.00;0.00;;;;;;;;4703582;24;45495;-81
2021/08/02 00:16:06;;;;;;;;;2.75;2.00;;;;;;;;4622027;30;45416;-82
2021/08/02 00:18:34;;;;;;;;;2.75;1.00;;;;;;;;4622132;30;45519;-80
2021/08/02 00:21:38;;;;;;;;;3.00;2.00;;;;;;;;4628503;30;48108;-81
2021/08/02 00:27:18;;;;;;;;;1.75;1.00;;;;;;;;4784522;24;45969;-83
2021/08/02 00:29:44;;;;;;;;;2.75;2.00;;;;;;;;4673980;30;46263;-82
2021/08/02 00:32:10;;;;;;;;;2.00;2.00;;;;;;;;4666622;30;47346;-83
2021/08/02 00:34:35;;;;;;;;;3.75;2.00;;;;;;;;4703818;24;47526;-84
2021/08/02 00:37:11;;;;;;;;;2.00;2.00;;;;;;;;4678653;30;45863;-85
2021/08/02 00:39:45;;;;;;;;;3.00;3.00;;;;;;;;4694284;30;45664;-83
2021/08/02 00:45:04;;;;;;;;;1.25;1.25;;;;;;;;5148637;24;46111;-83
2021/08/02 00:54:05;;;;;;;;;5.75;2.25;;;;;;;;4548926;31;45635;-83
2021/08/02 01:06:13;;;;;;;;;2.00;2.00;;;;;;;;4486117;31;45505;-82
2021/08/02 01:08:39;;;;;;;;;2.25;2.25;;;;;;;;4482097;31;45668;-82
2021/08/02 01:14:17;;;;;;;;;2.50;2.25;;;;;;;;4484953;31;45762;-82
2021/08/02 01:16:44;;;;;;;;;3.00;3.00;;;;;;;;4483564;31;45472;-83
2021/08/02 01:19:10;;;;;;;;;2.25;2.25;;;;;;;;4463265;31;45469;-84
2021/08/02 01:21:40;;;;;;;;;2.00;0.00;;;;;;;;4481630;31;45544;-83
2021/08/02 01:24:06;;;;;;;;;2.00;2.00;;;;;;;;4462885;31;46846;-83
2021/08/02 01:26:44;;;;;;;;;2.00;2.00;;;;;;;;4471296;31;45935;-82
2021/08/02 01:29:28;;;;;;;;;1.50;1.50;;;;;;;;4475239;31;47744;-84
2021/08/02 01:42:13;;;;;;;;;3.00;2.25;;;;;;;;3332211;24;46143;-82
2021/08/02 01:45:08;;;;;;;;;2.50;2.50;;;;;;;;4653909;30;50146;-83
2021/08/02 01:47:37;;;;;;;;;2.25;2.25;;;;;;;;4666462;24;47370;-83
2021/08/02 01:55:45;;;;;;;;;2.00;2.00;;;;;;;;4511864;28;45599;-80
2021/08/02 01:58:10;;;;;;;;;3.50;2.50;;;;;;;;4682762;30;45482;-79
2021/08/02 02:03:33;;;;;;;;;3.00;2.00;;;;;;;;4655787;30;45565;-81
2021/08/02 02:09:42;;;;;;;;;2.00;2.00;;;;;;;;4594039;30;45493;-79
2021/08/02 02:12:30;;;;;;;;;2.50;2.50;;;;;;;;4536355;31;45467;-79
2021/08/02 02:17:53;;;;;;;;;4.00;2.00;;;;;;;;4524590;31;45599;-81
2021/08/02 02:20:39;;;;;;;;;3.25;2.00;;;;;;;;4526549;31;45644;-79
2021/08/02 02:23:05;;;;;;;;;4.00;4.00;;;;;;;;4547686;31;45483;-80
2021/08/02 02:25:59;;;;;;;;;4.50;4.00;;;;;;;;4507781;31;45683;-80
2021/08/02 02:28:25;;;;;;;;;3.00;3.00;;;;;;;;4508283;31;45630;-78
2021/08/02 02:30:51;;;;;;;;;5.00;3.00;;;;;;;;4526765;31;45552;-80
2021/08/02 02:33:17;;;;;;;;;4.00;2.75;;;;;;;;4510655;31;47429;-80
2021/08/02 02:35:49;;;;;;;;;5.00;2.50;;;;;;;;4520983;31;45434;-82
2021/08/02 02:38:15;;;;;;;;;3.00;3.00;;;;;;;;4522810;31;56684;-80
2021/08/02 02:47:37;;;;;;;;;4.25;3.25;;;;;;;;4554412;30;48053;-79
2021/08/02 02:50:03;;;;;;;;;4.00;3.25;;;;;;;;4560701;31;45627;-83
2021/08/02 02:52:29;;;;;;;;;6.00;5.00;;;;;;;;4566599;31;45543;-83
2021/08/02 02:54:55;;;;;;;;;4.25;4.25;;;;;;;;4832854;24;45507;-81
2021/08/02 02:57:23;;;;;;;;;3.75;3.75;;;;;;;;4686562;30;45631;-82
2021/08/02 03:00:27;;;;;;;;;4.50;4.50;;;;;;;;4666430;30;45712;-85
2021/08/02 03:02:54;;;;;;;;;3.50;3.00;;;;;;;;4597026;30;46293;-82
2021/08/02 03:05:54;;;;;;;;;4.25;4.25;;;;;;;;4602331;30;46035;-83
2021/08/02 03:08:22;;;;;;;;;3.75;2.75;;;;;;;;4596135;30;48444;-82
2021/08/02 03:10:49;;;;;;;;;3.00;3.00;;;;;;;;4586276;30;45854;-81
2021/08/02 03:13:15;;;;;;;;;6.25;4.75;;;;;;;;4599500;30;46546;-82
2021/08/02 03:15:40;;;;;;;;;3.75;3.75;;;;;;;;4605216;30;45690;-82
2021/08/02 03:18:11;;;;;;;;;4.75;3.00;;;;;;;;4600565;30;45682;-82
2021/08/02 03:24:03;;;;;;;;;3.50;3.50;;;;;;;;4536687;31;47018;-82
2021/08/02 03:26:30;;;;;;;;;5.00;3.25;;;;;;;;4539523;31;45713;-87
2021/08/02 03:28:58;;;;;;;;;4.00;4.00;;;;;;;;4550512;30;44999;-83
2021/08/02 03:31:41;;;;;;;;;4.50;4.50;;;;;;;;4520667;31;45598;-81
2021/08/02 03:37:10;;;;;;;;;4.25;4.25;;;;;;;;4542921;31;46296;-81
2021/08/02 03:39:35;;;;;;;;;5.00;4.00;;;;;;;;4617535;30;45601;-82
2021/08/02 03:42:02;;;;;;;;;7.25;5.00;;;;;;;;4612577;30;45746;-82
2021/08/02 03:44:37;;;;;;;;;7.00;5.25;;;;;;;;4615796;30;45959;-82
2021/08/02 03:47:03;;;;;;;;;3.00;3.00;;;;;;;;4592640;30;45695;-81
2021/08/02 03:49:48;;;;;;;;;6.50;4.00;;;;;;;;4614638;30;45488;-81
2021/08/02 03:55:21;;;;;;;;;4.50;3.00;;;;;;;;4631955;30;45720;-79
2021/08/02 03:57:49;;;;;;;;;6.75;5.50;;;;;;;;4640048;30;45646;-80
2021/08/02 04:03:26;;;;;;;;;7.25;6.00;;;;;;;;4659404;30;46721;-79
2021/08/02 04:05:54;;;;;;;;;6.25;4.25;;;;;;;;4668035;30;47825;-79
2021/08/02 04:08:57;;;;;;;;;7.75;6.00;;;;;;;;4672178;30;45750;-78
2021/08/02 04:11:25;;;;;;;;;7.00;5.00;;;;;;;;4660508;30;46794;-80
2021/08/02 04:13:50;;;;;;;;;4.00;4.00;;;;;;;;4668819;30;45608;-79
2021/08/02 04:16:18;;;;;;;;;4.50;4.50;;;;;;;;4668470;30;45526;-80
2021/08/02 04:18:44;;;;;;;;;6.25;4.75;;;;;;;;4675257;30;46108;-80
2021/08/02 04:21:09;;;;;;;;;6.25;4.75;;;;;;;;4669794;30;45588;-79
2021/08/02 04:23:34;;;;;;;;;6.25;5.00;;;;;;;;4671164;30;45616;-78
2021/08/02 04:26:00;;;;;;;;;8.75;5.75;;;;;;;;4673082;30;46295;-79
2021/08/02 04:28:25;;;;;;;;;8.75;6.00;;;;;;;;4667147;30;45516;-79
2021/08/02 04:33:59;;;;;;;;;9.50;7.00;;;;;;;;4589344;30;45659;-78
2021/08/02 04:36:27;;;;;;;;;10.25;6.00;;;;;;;;4603360;30;45694;-79
2021/08/02 04:39:28;;;;;;;;;7.00;6.00;;;;;;;;4596200;30;46249;-79
2021/08/02 04:41:53;;;;;;;;;7.50;6.75;;;;;;;;4572600;30;46521;-80
2021/08/02 04:44:18;;;;;;;;;7.50;6.00;;;;;;;;4572450;30;45775;-78
2021/08/02 04:46:50;;;;;;;;;6.25;6.25;;;;;;;;4557978;30;46981;-78
2021/08/02 04:49:15;;;;;;;;;6.50;6.00;;;;;;;;4573782;30;45751;-78
2021/08/02 04:51:40;;;;;;;;;7.75;6.75;;;;;;;;4570788;30;46303;-79
2021/08/02 04:54:06;;;;;;;;;7.25;5.50;;;;;;;;4570877;30;45740;-79
2021/08/02 04:56:31;;;;;;;;;5.50;5.50;;;;;;;;4591735;30;46267;-79
2021/08/02 04:58:56;;;;;;;;;6.25;6.00;;;;;;;;4585114;30;45838;-79
2021/08/02 05:01:22;;;;;;;;;5.25;4.00;;;;;;;;4584894;30;45707;-78
2021/08/02 05:03:47;;;;;;;;;5.75;5.75;;;;;;;;4588577;30;46170;-79
2021/08/02 05:06:12;;;;;;;;;6.00;5.50;;;;;;;;4585882;30;46072;-78
2021/08/02 05:08:37;;;;;;;;;5.50;5.00;;;;;;;;4590076;30;46743;-79
2021/08/02 05:11:09;;;;;;;;;6.50;6.00;;;;;;;;4617141;30;45497;-78
2021/08/02 05:14:00;;;;;;;;;9.25;5.50;;;;;;;;4641840;30;46203;-80
2021/08/02 05:20:00;;;;;;;;;8.00;6.50;;;;;;;;4673791;30;45520;-80
2021/08/02 05:22:37;;;;;;;;;6.50;4.25;;;;;;;;4668877;30;45496;-81
2021/08/02 05:25:02;;;;;;;;;9.25;5.50;;;;;;;;4669909;30;45564;-79
2021/08/02 05:27:50;;;;;;;;;6.50;6.00;;;;;;;;4675624;30;45870;-79
2021/08/02 05:33:30;;;;;;;;;6.00;5.50;;;;;;;;4556283;31;46072;-79
2021/08/02 05:36:03;;;;;;;;;9.25;6.25;;;;;;;;4546695;31;45731;-78
2021/08/02 05:38:28;;;;;;;;;6.00;6.00;;;;;;;;4560347;31;45519;-80
2021/08/02 05:41:16;;;;;;;;;5.00;5.00;;;;;;;;4552260;31;45581;-78
2021/08/02 05:43:42;;;;;;;;;9.00;5.75;;;;;;;;4548437;31;45512;-79
2021/08/02 05:46:07;;;;;;;;;4.50;4.50;;;;;;;;4556217;31;52837;-79
2021/08/02 05:48:33;;;;;;;;;10.25;6.75;;;;;;;;4555847;31;45699;-78
2021/08/02 05:51:07;;;;;;;;;6.75;4.75;;;;;;;;4554987;31;45845;-79
2021/08/02 05:53:32;;;;;;;;;5.25;5.00;;;;;;;;4553223;31;45567;-79
2021/08/02 05:55:57;;;;;;;;;6.75;5.00;;;;;;;;4555738;31;45608;-78
2021/08/02 06:01:40;;;;;;;;;5.50;3.25;;;;;;;;4553754;31;45568;-78
2021/08/02 06:04:05;;;;;;;;;5.67;3.00;;;;;;;;4553142;31;45546;-79
2021/08/02 06:06:33;;;;;;;;;7.00;4.25;;;;;;;;4556841;31;46478;-79
2021/08/02 06:08:58;;;;;;;;;7.00;5.00;;;;;;;;4554850;30;45547;-79
2021/08/02 06:11:23;;;;;;;;;5.75;4.50;;;;;;;;4671888;30;45602;-79
2021/08/02 06:13:49;;;;;;;;;3.75;3.75;;;;;;;;4670870;30;45816;-79
2021/08/02 06:16:20;;;;;;;;;3.00;3.00;;;;;;;;4653994;30;45515;-79
2021/08/02 06:18:45;;;;;;;;;6.25;4.50;;;;;;;;4656025;30;46473;-79
2021/08/02 06:21:52;;;;;;;;;4.50;3.75;;;;;;;;4655179;30;45658;-78
2021/08/02 06:24:17;;;;;;;;;6.00;4.50;;;;;;;;4583879;30;45464;-79
2021/08/02 06:26:42;;;;;;;;;4.00;4.00;;;;;;;;4568787;30;48272;-78
2021/08/02 06:29:08;;;;;;;;;7.50;4.00;;;;;;;;4588344;30;46243;-79
2021/08/02 06:31:36;;;;;;;;;4.00;4.00;;;;;;;;4573864;30;46026;-79
2021/08/02 06:34:24;;;;;;;;;6.25;5.00;;;;;;;;4567371;30;53619;-78
2021/08/02 06:39:53;;;;;;;;;3.00;3.00;;;;;;;;4579145;30;45711;-79
2021/08/02 06:42:18;;;;;;;;;5.25;4.00;;;;;;;;4583903;30;45838;-78
2021/08/02 06:44:47;;;;;;;;;5.50;3.00;;;;;;;;4588255;30;44908;-79
2021/08/02 06:47:12;;;;;;;;;7.25;5.00;;;;;;;;4584456;30;45532;-78
2021/08/02 06:49:40;;;;;;;;;4.50;3.50;;;;;;;;4587199;30;47357;-82
2021/08/02 06:52:09;;;;;;;;;5.00;3.00;;;;;;;;4584057;30;45635;-82
2021/08/02 06:54:34;;;;;;;;;3.75;3.75;;;;;;;;4590292;30;45653;-82
2021/08/02 06:56:59;;;;;;;;;4.25;4.00;;;;;;;;4599671;30;45798;-82
2021/08/02 06:59:25;;;;;;;;;3.25;3.25;;;;;;;;4687731;30;45567;-81
2021/08/02 07:01:50;;;;;;;;;7.25;3.00;;;;;;;;4690108;30;45386;-82
2021/08/02 07:04:15;;;;;;;;;6.00;5.00;;;;;;;;4684905;30;45502;-81
2021/08/02 07:09:59;;;;;;;;;4.00;4.00;;;;;;;;4599126;30;46984;-82
2021/08/02 07:12:24;;;;;;;;;3.75;3.75;;;;;;;;4605689;30;45656;-82
2021/08/02 07:14:49;;;;;;;;;4.25;4.25;;;;;;;;4605296;30;45859;-81
2021/08/02 07:17:14;;;;;;;;;7.00;5.00;;;;;;;;4607785;30;45572;-83
2021/08/02 07:19:39;;;;;;;;;4.50;4.50;;;;;;;;4600950;30;47391;-82
2021/08/02 07:22:05;;;;;;;;;4.25;4.00;;;;;;;;4603228;30;45502;-83
2021/08/02 07:24:39;;;;;;;;;8.25;6.75;;;;;;;;4689252;24;45827;-81
2021/08/02 07:27:05;;;;;;;;;4.25;4.25;;;;;;;;4741758;24;46559;-94
2021/08/02 07:38:39;;;;;;;;;8.25;5.00;;;;;;;;4717761;24;46473;-81
2021/08/02 07:41:08;;;;;;;;;6.25;5.25;;;;;;;;4691646;30;51430;-82
2021/08/02 07:43:52;;;;;;;;;4.25;4.25;;;;;;;;4689727;30;45504;-82
2021/08/02 07:46:18;;;;;;;;;3.75;3.75;;;;;;;;4695790;30;45676;-82
2021/08/02 07:48:43;;;;;;;;;4.00;4.00;;;;;;;;4694745;30;45607;-82
2021/08/02 07:51:08;;;;;;;;;6.25;4.75;;;;;;;;4677802;30;47627;-79
2021/08/02 07:53:33;;;;;;;;;4.50;3.75;;;;;;;;4696804;30;45764;-79
2021/08/02 07:55:59;;;;;;;;;5.00;5.00;;;;;;;;4692018;30;45515;-79
2021/08/02 08:01:45;;;;;;;;;6.25;5.00;;;;;;;;4562680;31;48176;-80
2021/08/02 08:04:13;;;;;;;;;7.75;5.00;;;;;;;;4562229;30;45653;-80
2021/08/02 08:07:04;;;;;;;;;4.50;4.50;;;;;;;;4563037;31;45569;-79
2021/08/02 08:09:29;;;;;;;;;6.00;6.00;;;;;;;;4509417;31;45680;-80
2021/08/02 08:11:55;;;;;;;;;6.50;5.00;;;;;;;;4500568;31;47389;-79
2021/08/02 08:14:40;;;;;;;;;5.50;5.50;;;;;;;;4513568;31;45550;-79
2021/08/02 08:17:05;;;;;;;;;5.00;5.00;;;;;;;;4516448;31;45529;-79
2021/08/02 08:19:34;;;;;;;;;7.00;3.75;;;;;;;;4503180;31;45864;-79
2021/08/02 08:21:59;;;;;;;;;4.00;4.00;;;;;;;;4504326;31;46245;-81
2021/08/02 08:24:25;;;;;;;;;5.00;3.75;;;;;;;;4504482;31;50641;-79
2021/08/02 08:29:56;;;;;;;;;4.25;3.75;;;;;;;;4492292;31;45565;-80
2021/08/02 08:32:21;;;;;;;;;5.00;3.00;;;;;;;;4506401;31;46564;-79
2021/08/02 08:34:46;;;;;;;;;6.00;3.75;;;;;;;;4502224;31;45568;-80
2021/08/02 08:37:27;;;;;;;;;4.75;3.75;;;;;;;;4539879;30;45587;-80
2021/08/02 08:39:52;;;;;;;;;6.00;3.25;;;;;;;;4616932;30;45685;-80
2021/08/02 08:42:18;;;;;;;;;3.25;2.75;;;;;;;;4632466;30;48085;-80
2021/08/02 08:44:43;;;;;;;;;5.75;3.75;;;;;;;;4723947;24;45655;-79
2021/08/02 08:47:35;;;;;;;;;4.00;4.00;;;;;;;;4709185;30;45513;-79
2021/08/02 08:50:04;;;;;;;;;4.50;3.00;;;;;;;;4638960;30;45615;-84
2021/08/02 08:52:30;;;;;;;;;4.00;3.00;;;;;;;;4650866;30;45558;-82
2021/08/02 08:54:56;;;;;;;;;7.25;4.00;;;;;;;;4656452;30;45634;-82
2021/08/02 08:57:26;;;;;;;;;4.00;3.75;;;;;;;;4635964;30;45660;-82
2021/08/02 09:00:15;;;;;;;;;5.00;3.25;;;;;;;;4633811;30;46092;-82
2021/08/02 09:02:40;;;;;;;;;4.00;3.75;;;;;;;;4644512;30;46859;-82
2021/08/02 09:05:06;;;;;;;;;3.75;3.75;;;;;;;;4654690;30;45618;-83
2021/08/02 09:08:02;;;;;;;;;;;;;;;;;;;;;
2021/08/02 09:11:03;;;;;;;;;5.25;4.50;;;;;;;;4651967;30;71689;-80
2021/08/02 09:19:02;;;;;;;;;7.00;4.00;;;;;;;;3051635;28;46076;-81
2021/08/02 09:25:03;;;;;;;;;5.00;2.25;;;;;;;;4666177;30;45690;-81
2021/08/02 09:27:28;;;;;;;;;4.25;3.25;;;;;;;;4663759;30;51155;-81
2021/08/02 09:33:03;;;;;;;;;5.00;4.00;;;;;;;;4593724;30;45629;-82
2021/08/02 09:35:39;;;;;;;;;4.50;3.00;;;;;;;;4604515;30;46172;-83
2021/08/02 09:52:20;;;;;;;;;6.50;2.75;;;;;;;;4547853;31;45683;-79
2021/08/02 09:54:45;;;;;;;;;2.75;2.75;;;;;;;;4553372;31;45642;-79
2021/08/02 09:57:13;;;;;;;;;1.25;1.25;;;;;;;;4544924;31;47317;-78
2021/08/02 09:59:42;;;;;;;;;2.25;2.25;;;;;;;;4560803;30;45561;-78
2021/08/02 10:02:10;;;;;;;;;4.75;2.50;;;;;;;;4575471;30;45546;-79
2021/08/02 10:05:02;;;;;;;;;3.25;2.00;;;;;;;;4561951;30;45744;-79
2021/08/02 10:07:27;;;;;;;;;3.75;3.75;;;;;;;;4499385;31;46284;-79
2021/08/02 10:13:01;;;;;;;;;1.75;1.75;;;;;;;;4506687;31;45547;-80
2021/08/02 10:15:30;;;;;;;;;2.00;2.00;;;;;;;;4502063;31;45606;-79
2021/08/02 10:17:59;;;;;;;;;5.25;2.00;;;;;;;;4500980;31;46318;-79
2021/08/02 10:20:25;;;;;;;;;3.25;3.25;;;;;;;;4505109;31;45835;-79
2021/08/02 10:22:51;;;;;;;;;2.00;2.00;;;;;;;;4484757;31;45614;-78
2021/08/02 10:32:29;;;;;;;;;2.00;2.00;;;;;;;;4528709;31;45652;-78
2021/08/02 10:34:56;;;;;;;;;2.75;1.75;;;;;;;;4484421;31;45738;-78
2021/08/02 10:37:28;;;;;;;;;1.75;1.00;;;;;;;;4501642;31;45887;-78
2021/08/02 10:40:06;;;;;;;;;2.50;2.00;;;;;;;;4503941;31;45513;-79
2021/08/02 10:42:32;;;;;;;;;4.00;3.00;;;;;;;;4505399;31;45590;-79
2021/08/02 10:44:58;;;;;;;;;1.25;1.25;;;;;;;;4499340;31;45669;-79
2021/08/02 10:47:35;;;;;;;;;2.00;2.00;;;;;;;;4522215;31;45561;-79
2021/08/02 10:53:20;;;;;;;;;1.25;1.25;;;;;;;;4506557;31;46287;-79
2021/08/02 10:55:47;;;;;;;;;2.00;2.00;;;;;;;;4503454;31;45661;-79
2021/08/02 10:58:12;;;;;;;;;2.00;2.00;;;;;;;;4489705;31;45799;-79
2021/08/02 11:00:38;;;;;;;;;2.00;2.00;;;;;;;;4505086;31;46449;-79
2021/08/02 11:06:32;;;;;;;;;1.75;0.50;;;;;;;;4463686;31;45607;-79
2021/08/02 11:08:58;;;;;;;;;2.00;1.75;;;;;;;;4484349;31;45668;-78
2021/08/02 11:11:34;;;;;;;;;4.25;1.25;;;;;;;;4514058;31;47566;-79
2021/08/02 11:14:07;;;;;;;;;3.25;1.25;;;;;;;;4490692;31;45595;-79
2021/08/02 11:16:51;;;;;;;;;3.00;2.00;;;;;;;;4505221;31;45584;-79
2021/08/02 11:19:23;;;;;;;;;2.25;2.00;;;;;;;;4508577;31;45587;-77
2021/08/02 11:22:09;;;;;;;;;2.50;1.00;;;;;;;;4506063;31;47185;-78
2021/08/02 11:27:53;;;;;;;;;3.25;3.00;;;;;;;;4439928;31;45567;-78
2021/08/02 11:30:19;;;;;;;;;2.00;2.00;;;;;;;;4440745;31;45677;-78
2021/08/02 11:32:44;;;;;;;;;2.00;2.00;;;;;;;;4439538;31;52871;-79
2021/08/02 11:35:51;;;;;;;;;1.75;1.00;;;;;;;;4455914;31;45707;-78
2021/08/02 11:41:34;;;;;;;;;3.00;3.00;;;;;;;;4391536;32;46299;-79
2021/08/02 11:44:03;;;;;;;;;2.75;2.00;;;;;;;;4694260;24;45984;-78
2021/08/02 11:46:28;;;;;;;;;2.00;2.00;;;;;;;;4685759;30;45672;-78
2021/08/02 11:49:47;;;;;;;;;3.75;2.25;;;;;;;;4684988;30;45553;-78
2021/08/02 11:52:20;;;;;;;;;4.00;2.00;;;;;;;;4684941;24;45727;-81
2021/08/02 11:54:47;;;;;;;;;1.50;1.50;;;;;;;;4659798;30;46509;-81
2021/08/02 11:57:19;;;;;;;;;3.00;3.00;;;;;;;;4645784;30;45769;-80
2021/08/02 11:59:55;;;;;;;;;2.00;2.00;;;;;;;;4690735;24;45563;-92
2021/08/02 12:02:53;;;;;;;;;4.25;2.25;;;;;;;;4699046;30;45322;-93
2021/08/02 12:05:25;;;;;;;;;4.00;2.00;;;;;;;;4761691;24;45543;-87
2021/08/02 12:07:52;;;;;;;;;2.00;2.00;;;;;;;;4701065;30;45732;-80
2021/08/02 12:10:19;;;;;;;;;4.00;3.00;;;;;;;;4701186;29;49166;-81
2021/08/02 12:12:55;;;;;;;;;3.00;3.00;;;;;;;;4710148;30;45494;-81
2021/08/02 12:15:20;;;;;;;;;4.25;3.00;;;;;;;;4683024;30;47312;-81
2021/08/02 12:17:49;;;;;;;;;2.00;2.00;;;;;;;;4689903;30;48635;-81
2021/08/02 12:25:39;;;;;;;;;3.00;3.00;;;;;;;;4703109;30;46955;-80
2021/08/02 12:28:08;;;;;;;;;3.50;3.00;;;;;;;;4707183;30;45582;-80
2021/08/02 12:36:57;;;;;;;;;2.00;2.00;;;;;;;;4807691;24;47513;-81
2021/08/02 12:39:27;;;;;;;;;2.00;2.00;;;;;;;;4693086;30;46085;-83
2021/08/02 12:41:53;;;;;;;;;4.00;2.50;;;;;;;;4693376;30;45438;-81
2021/08/02 12:46:53;;;;;;;;;4.00;4.00;;;;;;;;5048189;24;45955;-82
2021/08/02 12:49:37;;;;;;;;;3.50;3.25;;;;;;;;4692168;30;45633;-81
2021/08/02 12:52:31;;;;;;;;;4.50;3.00;;;;;;;;4702115;24;45605;-81
2021/08/02 12:54:59;;;;;;;;;4.75;3.50;;;;;;;;4657609;30;45762;-81
2021/08/02 12:57:26;;;;;;;;;3.00;3.00;;;;;;;;4669452;30;47056;-80
2021/08/02 12:59:58;;;;;;;;;3.00;3.00;;;;;;;;4713967;24;45732;-82
2021/08/02 13:05:35;;;;;;;;;3.00;2.50;;;;;;;;4553085;31;46342;-81
2021/08/02 13:10:36;;;;;;;;;3.50;2.25;;;;;;;;4746133;24;45680;-81
2021/08/02 13:13:33;;;;;;;;;4.25;3.50;;;;;;;;4665414;30;48630;-81
2021/08/02 13:15:58;;;;;;;;;5.00;3.00;;;;;;;;4585675;30;45582;-83
2021/08/02 13:18:30;;;;;;;;;3.25;3.00;;;;;;;;4601058;30;45595;-81
2021/08/02 13:20:55;;;;;;;;;6.50;2.00;;;;;;;;4592525;30;56303;-81
2021/08/02 13:28:30;;;;;;;;;2.25;2.25;;;;;;;;5267902;24;46064;-82
2021/08/02 13:31:11;;;;;;;;;4.00;1.75;;;;;;;;4680497;30;45648;-81
2021/08/02 13:33:38;;;;;;;;;2.00;2.00;;;;;;;;4687724;30;45705;-81
2021/08/02 13:36:29;;;;;;;;;3.25;3.00;;;;;;;;4687894;30;47699;-81
2021/08/02 13:47:35;;;;;;;;;5.25;2.50;;;;;;;;4634237;30;45535;-81
2021/08/02 13:50:00;;;;;;;;;2.25;2.25;;;;;;;;4648185;30;51273;-81
2021/08/02 13:52:26;;;;;;;;;5.00;4.00;;;;;;;;4636382;30;46074;-81
2021/08/02 13:54:51;;;;;;;;;4.00;2.00;;;;;;;;4738510;24;45647;-81
2021/08/02 13:57:40;;;;;;;;;4.00;1.00;;;;;;;;4686460;30;45546;-83
2021/08/02 14:00:06;;;;;;;;;3.00;1.50;;;;;;;;4679076;30;48462;-80
2021/08/02 14:02:31;;;;;;;;;2.00;2.00;;;;;;;;4686516;30;45531;-82
2021/08/02 14:08:42;;;;;;;;;3.00;2.25;;;;;;;;4636694;30;45430;-80
2021/08/02 14:11:21;;;;;;;;;1.50;1.50;;;;;;;;4597646;30;46891;-80
2021/08/02 14:13:53;;;;;;;;;2.50;2.50;;;;;;;;4586801;30;45756;-80
2021/08/02 14:16:19;;;;;;;;;4.25;3.00;;;;;;;;4568921;30;45731;-81
2021/08/02 14:18:50;;;;;;;;;2.00;2.00;;;;;;;;4571665;30;46211;-83
2021/08/02 14:21:25;;;;;;;;;5.00;2.00;;;;;;;;4581038;30;45839;-81
2021/08/02 14:23:53;;;;;;;;;4.00;3.00;;;;;;;;4581594;30;45598;-80
2021/08/02 14:26:47;;;;;;;;;2.00;2.00;;;;;;;;4587640;30;45640;-81
2021/08/02 14:29:30;;;;;;;;;4.25;3.00;;;;;;;;4578404;30;47619;-81
2021/08/02 14:32:01;;;;;;;;;3.00;2.00;;;;;;;;4570036;31;48338;-81
2021/08/02 14:34:27;;;;;;;;;3.75;2.50;;;;;;;;4580441;30;45509;-80
2021/08/02 14:36:52;;;;;;;;;1.75;1.75;;;;;;;;4588002;30;45527;-80
2021/08/02 14:39:19;;;;;;;;;2.25;2.25;;;;;;;;4581604;30;45604;-80
2021/08/02 14:41:45;;;;;;;;;4.25;2.00;;;;;;;;4587585;30;45503;-80
2021/08/02 14:44:11;;;;;;;;;2.50;2.00;;;;;;;;4586330;30;45911;-80
2021/08/02 14:46:37;;;;;;;;;3.25;3.00;;;;;;;;4645676;30;51674;-80
2021/08/02 14:49:07;;;;;;;;;5.25;2.00;;;;;;;;4673704;30;45689;-80
2021/08/02 14:51:32;;;;;;;;;2.00;2.00;;;;;;;;4690288;30;45552;-81
2021/08/02 14:54:16;;;;;;;;;2.00;2.00;;;;;;;;4692213;30;45481;-84
2021/08/02 15:02:47;;;;;;;;;3.75;2.50;;;;;;;;4588772;30;45553;-80
2021/08/02 15:05:30;;;;;;;;;3.00;3.00;;;;;;;;4586272;30;46302;-81
2021/08/02 15:08:34;;;;;;;;;4.50;3.00;;;;;;;;4585403;30;45716;-80
2021/08/02 15:10:59;;;;;;;;;2.50;2.50;;;;;;;;4581533;30;45709;-81
2021/08/02 15:13:25;;;;;;;;;3.00;2.00;;;;;;;;4584194;30;48768;-80
2021/08/02 15:20:59;;;;;;;;;3.25;2.00;;;;;;;;4666274;30;45791;-80
2021/08/02 15:26:34;;;;;;;;;3.75;3.00;;;;;;;;4608156;30;45607;-81
2021/08/02 15:32:34;;;;;;;;;3.25;3.25;;;;;;;;4599421;30;45816;-81
2021/08/02 15:35:02;;;;;;;;;3.25;3.25;;;;;;;;4605821;30;46350;-80
2021/08/02 15:40:45;;;;;;;;;2.00;2.00;;;;;;;;4584941;30;45714;-81
2021/08/02 15:43:21;;;;;;;;;2.25;2.25;;;;;;;;4588437;30;45548;-80
2021/08/02 15:48:55;;;;;;;;;2.50;2.50;;;;;;;;4708352;24;45407;-81
2021/08/02 15:54:10;;;;;;;;;3.00;2.00;;;;;;;;4736190;24;45767;-91
2021/08/02 15:56:36;;;;;;;;;1.25;1.25;;;;;;;;4676523;30;45614;-91
2021/08/02 15:59:08;;;;;;;;;5.00;3.75;;;;;;;;4775543;24;45709;-78
2021/08/02 16:04:29;;;;;;;;;4.75;3.75;;;;;;;;4693983;30;45682;-79
2021/08/02 16:10:44;;;;;;;;;3.50;3.50;;;;;;;;4629623;30;45887;-80
2021/08/02 16:13:09;;;;;;;;;3.25;1.75;;;;;;;;4581231;30;45679;-78
2021/08/02 16:20:45;;;;;;;;;1.50;1.50;;;;;;;;4726735;24;45708;-78
2021/08/02 16:23:10;;;;;;;;;2.75;2.00;;;;;;;;4710573;30;46465;-78
2021/08/02 16:25:35;;;;;;;;;1.75;1.50;;;;;;;;4706150;30;45606;-79
2021/08/02 16:28:01;;;;;;;;;3.00;2.00;;;;;;;;4709892;30;46227;-77
2021/08/02 16:30:26;;;;;;;;;2.00;2.00;;;;;;;;4708492;30;45801;-78
2021/08/02 16:32:54;;;;;;;;;2.50;2.50;;;;;;;;4689724;30;45465;-78
2021/08/02 16:35:20;;;;;;;;;4.00;2.50;;;;;;;;4692042;30;45624;-78
2021/08/02 16:37:46;;;;;;;;;2.00;1.75;;;;;;;;4687804;24;47081;-90
2021/08/02 16:40:15;;;;;;;;;3.00;2.00;;;;;;;;4684638;30;45632;-90
2021/08/02 16:42:42;;;;;;;;;4.00;3.00;;;;;;;;4690754;30;45275;-92
2021/08/02 16:45:10;;;;;;;;;2.00;2.00;;;;;;;;4689530;30;45431;-94
2021/08/02 16:47:36;;;;;;;;;2.00;2.00;;;;;;;;4705578;30;45520;-93
2021/08/02 16:50:01;;;;;;;;;4.00;2.75;;;;;;;;4700188;30;45347;-94
2021/08/02 16:52:26;;;;;;;;;4.00;2.75;;;;;;;;4691631;30;45572;-93
2021/08/02 16:54:51;;;;;;;;;3.00;2.00;;;;;;;;4690086;30;45525;-94
2021/08/02 16:57:17;;;;;;;;;2.00;2.00;;;;;;;;4691310;30;47593;-93
2021/08/02 16:59:42;;;;;;;;;2.00;2.00;;;;;;;;4693094;30;45493;-93
2021/08/02 17:02:07;;;;;;;;;3.00;2.25;;;;;;;;4692422;30;45523;-93
2021/08/02 17:04:33;;;;;;;;;4.50;2.00;;;;;;;;4688365;30;45285;-94
2021/08/02 17:06:58;;;;;;;;;2.75;2.00;;;;;;;;4695613;30;45689;-94
2021/08/02 17:09:24;;;;;;;;;2.50;1.75;;;;;;;;4692678;30;45486;-93
2021/08/02 17:11:51;;;;;;;;;3.25;1.25;;;;;;;;4684232;30;45514;-94
2021/08/02 17:14:16;;;;;;;;;3.00;2.00;;;;;;;;4690934;30;45381;-94
2021/08/02 17:16:44;;;;;;;;;2.00;2.00;;;;;;;;4679656;30;46996;-94
2021/08/02 17:19:09;;;;;;;;;4.75;2.00;;;;;;;;4696636;30;45530;-93
2021/08/02 17:21:34;;;;;;;;;1.00;1.00;;;;;;;;4698523;30;45280;-95
2021/08/02 17:24:00;;;;;;;;;1.75;1.75;;;;;;;;4679010;30;45343;-93
2021/08/02 17:26:25;;;;;;;;;3.00;2.00;;;;;;;;4704573;30;45469;-93
2021/08/02 17:31:54;;;;;;;;;3.00;2.00;;;;;;;;4712944;30;45555;-95
2021/08/02 17:40:41;;;;;;;;;1.75;1.75;;;;;;;;4614079;30;45338;-94
2021/08/02 17:43:06;;;;;;;;;2.00;2.00;;;;;;;;4620826;30;45401;-94
2021/08/02 17:45:31;;;;;;;;;1.00;1.00;;;;;;;;4617032;30;44790;-92
2021/08/02 17:47:59;;;;;;;;;1.25;1.25;;;;;;;;4615982;30;46593;-93
2021/08/02 17:50:25;;;;;;;;;1.00;1.00;;;;;;;;4608021;30;45502;-94
2021/08/02 17:52:50;;;;;;;;;2.00;2.00;;;;;;;;4617748;30;45546;-92
2021/08/02 17:55:16;;;;;;;;;2.00;2.00;;;;;;;;4620416;30;45543;-93
2021/08/02 17:57:42;;;;;;;;;1.50;1.50;;;;;;;;4611029;30;46961;-93
2021/08/02 18:00:07;;;;;;;;;2.25;2.25;;;;;;;;4626196;30;45451;-95
2021/08/02 18:02:34;;;;;;;;;1.75;1.50;;;;;;;;4621233;30;44785;-95
2021/08/02 18:05:02;;;;;;;;;2.50;1.75;;;;;;;;4695918;24;45594;-80
2021/08/02 18:10:41;;;;;;;;;4.50;1.25;;;;;;;;4644007;24;45591;-80
2021/08/02 18:13:09;;;;;;;;;1.50;1.50;;;;;;;;4823261;24;46196;-78
2021/08/02 18:15:35;;;;;;;;;4.75;2.75;;;;;;;;4691784;30;45652;-79
2021/08/02 18:18:26;;;;;;;;;2.00;1.75;;;;;;;;4701196;30;45897;-79
2021/08/02 18:21:01;;;;;;;;;2.50;2.50;;;;;;;;4676243;30;45944;-79
2021/08/02 18:23:26;;;;;;;;;3.00;1.50;;;;;;;;4705556;30;45227;-79
2021/08/02 18:25:51;;;;;;;;;2.75;2.00;;;;;;;;4686804;30;45670;-79
2021/08/02 18:28:16;;;;;;;;;3.75;2.25;;;;;;;;4689507;29;47699;-79
2021/08/02 18:30:42;;;;;;;;;2.75;2.75;;;;;;;;4691514;30;45624;-79
2021/08/02 18:33:33;;;;;;;;;3.00;3.00;;;;;;;;4699001;30;46330;-79
2021/08/02 18:36:03;;;;;;;;;3.25;3.25;;;;;;;;4698010;30;45490;-82
2021/08/02 18:38:28;;;;;;;;;3.00;3.00;;;;;;;;4684669;30;47136;-79
2021/08/02 18:41:16;;;;;;;;;5.75;3.25;;;;;;;;4699535;30;45564;-80
2021/08/02 18:43:53;;;;;;;;;5.00;5.00;;;;;;;;4654560;30;46634;-81
2021/08/02 18:49:53;;;;;;;;;4.25;4.25;;;;;;;;4605021;30;47486;-78
2021/08/02 18:52:18;;;;;;;;;7.50;5.50;;;;;;;;4610893;30;45836;-80
2021/08/02 18:54:46;;;;;;;;;6.00;4.75;;;;;;;;4626169;30;45600;-81
2021/08/02 18:57:14;;;;;;;;;7.50;4.00;;;;;;;;4608707;30;45355;-82
2021/08/02 19:02:59;;;;;;;;;6.25;5.50;;;;;;;;4600863;30;45737;-81
2021/08/02 19:08:00;;;;;;;;;6.00;5.50;;;;;;;;4688159;24;45607;-81
2021/08/02 19:10:57;;;;;;;;;5.75;5.25;;;;;;;;4661523;30;45636;-81
2021/08/02 19:13:24;;;;;;;;;7.00;6.75;;;;;;;;4638120;30;45641;-81
2021/08/02 19:15:49;;;;;;;;;5.25;5.00;;;;;;;;4648185;30;45678;-82
2021/08/02 19:18:26;;;;;;;;;6.50;6.00;;;;;;;;4652362;30;46448;-84
2021/08/02 19:20:53;;;;;;;;;7.00;5.00;;;;;;;;4721718;24;45887;-81